sensor_id;sensor_type;location;lat;lon;timestamp;pressure;altitude;pressure_sealevel;temperature;humidity
3917;BME280;1973;50.518;7.318;2023-04-05T00:01:51;101698.53;;;3.85;82.82
3917;BME280;1973;50.518;7.318;2023-04-05T00:04:18;101696.78;;;3.84;83.73
3917;BME280;1973;50.518;7.318;2023-04-05T00:06:47;101709.28;;;3.77;83.29
3917;BME280;1973;50.518;7.318;2023-04-05T00:09:19;101696.59;;;3.68;85.02
3917;BME280;1973;50.518;7.318;2023-04-05T00:11:46;101692.88;;;3.60;85.94
3917;BME280;1973;50.518;7.318;2023-04-05T00:14:13;101690.78;;;3.54;85.51
3917;BME280;1973;50.518;7.318;2023-04-05T00:16:40;101687.94;;;3.46;86.69
3917;BME280;1973;50.518;7.318;2023-04-05T00:19:06;101691.63;;;3.44;85.82
3917;BME280;1973;50.518;7.318;2023-04-05T00:21:33;101684.78;;;3.40;85.85
3917;BME280;1973;50.518;7.318;2023-04-05T00:23:59;101682.22;;;3.39;85.27
3917;BME280;1973;50.518;7.318;2023-04-05T00:26:26;101675.91;;;3.38;85.48
3917;BME280;1973;50.518;7.318;2023-04-05T00:28:53;101671.47;;;3.37;86.15
3917;BME280;1973;50.518;7.318;2023-04-05T00:31:19;101673.50;;;3.35;85.60
3917;BME280;1973;50.518;7.318;2023-04-05T00:33:46;101677.34;;;3.33;86.31
3917;BME280;1973;50.518;7.318;2023-04-05T00:36:17;101677.66;;;3.30;86.64
3917;BME280;1973;50.518;7.318;2023-04-05T00:38:45;101659.75;;;3.27;86.16
3917;BME280;1973;50.518;7.318;2023-04-05T00:41:12;101669.78;;;3.27;86.48
3917;BME280;1973;50.518;7.318;2023-04-05T00:43:40;101667.19;;;3.25;86.75
3917;BME280;1973;50.518;7.318;2023-04-05T00:46:07;101657.63;;;3.21;86.71
3917;BME280;1973;50.518;7.318;2023-04-05T00:48:34;101664.94;;;3.21;86.80
3917;BME280;1973;50.518;7.318;2023-04-05T00:51:01;101667.78;;;3.19;87.23
3917;BME280;1973;50.518;7.318;2023-04-05T00:53:29;101666.81;;;3.20;87.77
3917;BME280;1973;50.518;7.318;2023-04-05T00:55:57;101660.38;;;3.21;88.72
3917;BME280;1973;50.518;7.318;2023-04-05T00:58:23;101663.78;;;3.23;89.00
3917;BME280;1973;50.518;7.318;2023-04-05T01:01:01;101663.47;;;3.26;90.89
3917;BME280;1973;50.518;7.318;2023-04-05T01:03:34;101664.34;;;3.27;90.10
3917;BME280;1973;50.518;7.318;2023-04-05T01:08:48;101658.91;;;3.27;90.83
3917;BME280;1973;50.518;7.318;2023-04-05T01:11:17;101660.06;;;3.24;90.46
3917;BME280;1973;50.518;7.318;2023-04-05T01:13:45;101662.06;;;3.22;90.72
3917;BME280;1973;50.518;7.318;2023-04-05T01:16:12;101676.69;;;3.21;90.69
3917;BME280;1973;50.518;7.318;2023-04-05T01:18:38;101666.06;;;3.18;91.33
3917;BME280;1973;50.518;7.318;2023-04-05T01:38:03;101643.47;;;3.08;95.20
3917;BME280;1973;50.518;7.318;2023-04-05T01:40:31;101647.19;;;3.07;94.63
3917;BME280;1973;50.518;7.318;2023-04-05T01:43:02;101648.22;;;3.06;95.56
3917;BME280;1973;50.518;7.318;2023-04-05T01:45:28;101651.94;;;3.05;95.58
3917;BME280;1973;50.518;7.318;2023-04-05T01:47:55;101643.78;;;3.05;95.02
3917;BME280;1973;50.518;7.318;2023-04-05T01:50:21;101643.78;;;3.05;94.91
3917;BME280;1973;50.518;7.318;2023-04-05T01:52:48;101631.34;;;3.03;95.71
3917;BME280;1973;50.518;7.318;2023-04-05T01:55:14;101632.47;;;3.00;97.11
3917;BME280;1973;50.518;7.318;2023-04-05T01:57:41;101628.75;;;3.01;96.57
3917;BME280;1973;50.518;7.318;2023-04-05T02:00:08;101628.75;;;3.01;96.81
3917;BME280;1973;50.518;7.318;2023-04-05T02:02:34;101630.59;;;3.01;97.50
3917;BME280;1973;50.518;7.318;2023-04-05T02:05:01;101630.59;;;3.01;97.89
3917;BME280;1973;50.518;7.318;2023-04-05T02:07:27;101629.75;;;3.00;98.28
3917;BME280;1973;50.518;7.318;2023-04-05T02:09:54;101628.19;;;2.98;98.29
3917;BME280;1973;50.518;7.318;2023-04-05T02:12:20;101621.03;;;2.97;98.91
3917;BME280;1973;50.518;7.318;2023-04-05T02:14:47;101620.47;;;2.93;98.60
3917;BME280;1973;50.518;7.318;2023-04-05T02:17:14;101619.75;;;2.91;98.99
3917;BME280;1973;50.518;7.318;2023-04-05T02:19:43;101616.31;;;2.89;98.20
3917;BME280;1973;50.518;7.318;2023-04-05T02:22:12;101622.06;;;2.86;98.46
3917;BME280;1973;50.518;7.318;2023-04-05T02:24:39;101620.63;;;2.82;99.49
3917;BME280;1973;50.518;7.318;2023-04-05T02:27:05;101617.34;;;2.78;99.60
3917;BME280;1973;50.518;7.318;2023-04-05T02:29:32;101615.78;;;2.76;100.00
3917;BME280;1973;50.518;7.318;2023-04-05T02:32:00;101609.78;;;2.72;100.00
3917;BME280;1973;50.518;7.318;2023-04-05T02:34:26;101606.31;;;2.70;100.00
3917;BME280;1973;50.518;7.318;2023-04-05T02:36:53;101613.78;;;2.68;100.00
3917;BME280;1973;50.518;7.318;2023-04-05T02:39:19;101613.91;;;2.67;100.00
3917;BME280;1973;50.518;7.318;2023-04-05T02:41:46;101608.94;;;2.62;100.00
3917;BME280;1973;50.518;7.318;2023-04-05T02:44:12;101609.19;;;2.59;100.00
3917;BME280;1973;50.518;7.318;2023-04-05T02:46:39;101612.50;;;2.53;100.00
3917;BME280;1973;50.518;7.318;2023-04-05T02:49:06;101619.38;;;2.48;100.00
3917;BME280;1973;50.518;7.318;2023-04-05T02:51:32;101616.22;;;2.42;100.00
3917;BME280;1973;50.518;7.318;2023-04-05T02:54:01;101610.78;;;2.42;100.00
3917;BME280;1973;50.518;7.318;2023-04-05T02:56:28;101611.09;;;2.39;100.00
3917;BME280;1973;50.518;7.318;2023-04-05T02:58:55;101617.50;;;2.38;100.00
3917;BME280;1973;50.518;7.318;2023-04-05T03:01:21;101610.63;;;2.34;100.00
3917;BME280;1973;50.518;7.318;2023-04-05T03:03:49;101611.91;;;2.30;100.00
3917;BME280;1973;50.518;7.318;2023-04-05T03:06:16;101618.63;;;2.26;100.00
3917;BME280;1973;50.518;7.318;2023-04-05T03:08:42;101612.63;;;2.23;100.00
3917;BME280;1973;50.518;7.318;2023-04-05T03:11:09;101604.91;;;2.18;100.00
3917;BME280;1973;50.518;7.318;2023-04-05T03:13:36;101601.47;;;2.16;100.00
3917;BME280;1973;50.518;7.318;2023-04-05T03:16:03;101599.75;;;2.15;100.00
3917;BME280;1973;50.518;7.318;2023-04-05T03:18:30;101604.63;;;2.12;100.00
3917;BME280;1973;50.518;7.318;2023-04-05T03:20:57;101603.91;;;2.10;100.00
3917;BME280;1973;50.518;7.318;2023-04-05T03:23:25;101603.19;;;2.08;100.00
3917;BME280;1973;50.518;7.318;2023-04-05T03:25:57;101610.03;;;2.02;100.00
3917;BME280;1973;50.518;7.318;2023-04-05T03:28:24;101609.75;;;1.95;100.00
3917;BME280;1973;50.518;7.318;2023-04-05T03:30:50;101614.59;;;1.92;100.00
3917;BME280;1973;50.518;7.318;2023-04-05T03:33:18;101611.91;;;1.92;100.00
3917;BME280;1973;50.518;7.318;2023-04-05T03:35:45;101610.16;;;1.91;100.00
3917;BME280;1973;50.518;7.318;2023-04-05T03:38:12;101614.03;;;1.88;100.00
3917;BME280;1973;50.518;7.318;2023-04-05T03:40:38;101610.56;;;1.86;100.00
3917;BME280;1973;50.518;7.318;2023-04-05T03:43:05;101618.84;;;1.85;100.00
3917;BME280;1973;50.518;7.318;2023-04-05T03:45:31;101619.13;;;1.82;100.00
3917;BME280;1973;50.518;7.318;2023-04-05T03:47:58;101615.72;;;1.80;100.00
3917;BME280;1973;50.518;7.318;2023-04-05T03:50:25;101616.00;;;1.77;100.00
3917;BME280;1973;50.518;7.318;2023-04-05T03:52:52;101614.28;;;1.76;100.00
3917;BME280;1973;50.518;7.318;2023-04-05T03:55:19;101627.09;;;1.74;100.00
3917;BME280;1973;50.518;7.318;2023-04-05T03:57:46;101620.97;;;1.72;100.00
3917;BME280;1973;50.518;7.318;2023-04-05T04:00:12;101619.25;;;1.71;100.00
3917;BME280;1973;50.518;7.318;2023-04-05T04:02:44;101623.09;;;1.68;100.00
3917;BME280;1973;50.518;7.318;2023-04-05T04:05:11;101621.53;;;1.66;100.00
3917;BME280;1973;50.518;7.318;2023-04-05T04:07:38;101618.09;;;1.64;100.00
3917;BME280;1973;50.518;7.318;2023-04-05T04:10:04;101620.94;;;1.62;100.00
3917;BME280;1973;50.518;7.318;2023-04-05T04:12:31;101613.91;;;1.60;100.00
3917;BME280;1973;50.518;7.318;2023-04-05T04:14:58;101613.06;;;1.59;100.00
3917;BME280;1973;50.518;7.318;2023-04-05T04:17:29;101607.78;;;1.58;100.00
3917;BME280;1973;50.518;7.318;2023-04-05T04:19:57;101608.78;;;1.57;100.00
3917;BME280;1973;50.518;7.318;2023-04-05T04:22:24;101615.19;;;1.56;100.00
3917;BME280;1973;50.518;7.318;2023-04-05T04:25:05;101618.19;;;1.53;100.00
3917;BME280;1973;50.518;7.318;2023-04-05T04:27:40;101622.75;;;1.52;100.00
3917;BME280;1973;50.518;7.318;2023-04-05T04:30:09;101612.19;;;1.49;100.00
3917;BME280;1973;50.518;7.318;2023-04-05T04:32:37;101615.88;;;1.48;100.00
3917;BME280;1973;50.518;7.318;2023-04-05T04:35:22;101610.31;;;1.50;100.00
3917;BME280;1973;50.518;7.318;2023-04-05T04:38:03;101616.63;;;1.50;100.00
3917;BME280;1973;50.518;7.318;2023-04-05T04:40:35;101606.47;;;1.52;100.00
3917;BME280;1973;50.518;7.318;2023-04-05T04:43:12;101607.34;;;1.53;100.00
3917;BME280;1973;50.518;7.318;2023-04-05T04:45:40;101616.47;;;1.52;100.00
3917;BME280;1973;50.518;7.318;2023-04-05T04:48:07;101617.47;;;1.51;100.00
3917;BME280;1973;50.518;7.318;2023-04-05T04:50:33;101624.75;;;1.50;100.00
3917;BME280;1973;50.518;7.318;2023-04-05T04:53:00;101613.91;;;1.50;100.00
3917;BME280;1973;50.518;7.318;2023-04-05T04:55:27;101616.75;;;1.48;100.00
3917;BME280;1973;50.518;7.318;2023-04-05T04:57:54;101615.03;;;1.48;100.00
3917;BME280;1973;50.518;7.318;2023-04-05T05:00:22;101620.47;;;1.48;100.00
3917;BME280;1973;50.518;7.318;2023-04-05T05:02:50;101620.59;;;1.46;100.00
3917;BME280;1973;50.518;7.318;2023-04-05T05:05:18;101620.88;;;1.43;100.00
3917;BME280;1973;50.518;7.318;2023-04-05T05:07:48;101626.41;;;1.41;100.00
3917;BME280;1973;50.518;7.318;2023-04-05T05:10:16;101633.84;;;1.39;100.00
3917;BME280;1973;50.518;7.318;2023-04-05T05:12:42;101630.41;;;1.37;100.00
3917;BME280;1973;50.518;7.318;2023-04-05T05:15:10;101631.41;;;1.36;100.00
3917;BME280;1973;50.518;7.318;2023-04-05T05:17:37;101636.09;;;1.34;100.00
3917;BME280;1973;50.518;7.318;2023-04-05T05:20:05;101632.69;;;1.32;100.00
3917;BME280;1973;50.518;7.318;2023-04-05T05:22:36;101633.78;;;1.30;100.00
3917;BME280;1973;50.518;7.318;2023-04-05T05:25:04;101637.50;;;1.29;100.00
3917;BME280;1973;50.518;7.318;2023-04-05T05:27:31;101636.66;;;1.28;100.00
3917;BME280;1973;50.518;7.318;2023-04-05T05:29:59;101632.94;;;1.29;100.00
3917;BME280;1973;50.518;7.318;2023-04-05T05:32:26;101628.38;;;1.30;100.00
3917;BME280;1973;50.518;7.318;2023-04-05T05:34:53;101633.66;;;1.31;100.00
3917;BME280;1973;50.518;7.318;2023-04-05T05:37:21;101626.50;;;1.30;100.00
3917;BME280;1973;50.518;7.318;2023-04-05T05:39:54;101628.50;;;1.28;100.00
3917;BME280;1973;50.518;7.318;2023-04-05T05:42:21;101622.09;;;1.29;100.00
3917;BME280;1973;50.518;7.318;2023-04-05T05:44:48;101625.81;;;1.28;100.00
3917;BME280;1973;50.518;7.318;2023-04-05T05:47:14;101616.69;;;1.29;100.00
3917;BME280;1973;50.518;7.318;2023-04-05T05:49:41;101622.09;;;1.29;100.00
3917;BME280;1973;50.518;7.318;2023-04-05T05:52:07;101623.78;;;1.30;100.00
3917;BME280;1973;50.518;7.318;2023-04-05T05:54:33;101631.06;;;1.30;100.00
3917;BME280;1973;50.518;7.318;2023-04-05T05:57:00;101628.25;;;1.31;100.00
3917;BME280;1973;50.518;7.318;2023-04-05T05:59:27;101626.22;;;1.33;100.00
3917;BME280;1973;50.518;7.318;2023-04-05T06:01:54;101631.53;;;1.35;100.00
3917;BME280;1973;50.518;7.318;2023-04-05T06:04:20;101626.00;;;1.36;100.00
3917;BME280;1973;50.518;7.318;2023-04-05T06:06:48;101623.28;;;1.36;100.00
3917;BME280;1973;50.518;7.318;2023-04-05T06:09:15;101631.25;;;1.38;100.00
3917;BME280;1973;50.518;7.318;2023-04-05T06:11:41;101630.41;;;1.37;100.00
3917;BME280;1973;50.518;7.318;2023-04-05T06:14:21;101627.69;;;1.37;100.00
3917;BME280;1973;50.518;7.318;2023-04-05T06:16:48;101632.97;;;1.39;100.00
3917;BME280;1973;50.518;7.318;2023-04-05T06:19:14;101634.56;;;1.41;100.00
3917;BME280;1973;50.518;7.318;2023-04-05T06:21:41;101637.00;;;1.44;100.00
3917;BME280;1973;50.518;7.318;2023-04-05T06:24:07;101634.75;;;1.50;100.00
3917;BME280;1973;50.518;7.318;2023-04-05T06:26:34;101638.78;;;1.55;100.00
3917;BME280;1973;50.518;7.318;2023-04-05T06:29:00;101639.09;;;1.62;100.00
3917;BME280;1973;50.518;7.318;2023-04-05T06:31:30;101629.41;;;1.69;100.00
3917;BME280;1973;50.518;7.318;2023-04-05T06:33:58;101624.13;;;1.77;100.00
3917;BME280;1973;50.518;7.318;2023-04-05T06:36:24;101626.00;;;1.86;100.00
3917;BME280;1973;50.518;7.318;2023-04-05T06:38:53;101630.59;;;1.95;100.00
3917;BME280;1973;50.518;7.318;2023-04-05T06:41:19;101624.31;;;2.04;100.00
3917;BME280;1973;50.518;7.318;2023-04-05T06:43:46;101626.06;;;2.15;100.00
3917;BME280;1973;50.518;7.318;2023-04-05T06:46:12;101626.09;;;2.24;100.00
3917;BME280;1973;50.518;7.318;2023-04-05T06:48:39;101627.22;;;2.31;100.00
3917;BME280;1973;50.518;7.318;2023-04-05T06:51:06;101628.09;;;2.41;100.00
3917;BME280;1973;50.518;7.318;2023-04-05T06:53:32;101618.06;;;2.52;100.00
3917;BME280;1973;50.518;7.318;2023-04-05T06:55:59;101618.78;;;2.63;100.00
3917;BME280;1973;50.518;7.318;2023-04-05T06:58:26;101617.75;;;2.74;100.00
3917;BME280;1973;50.518;7.318;2023-04-05T07:00:53;101613.19;;;2.84;100.00
3917;BME280;1973;50.518;7.318;2023-04-05T07:03:20;101612.16;;;2.94;100.00
3917;BME280;1973;50.518;7.318;2023-04-05T07:05:50;101611.84;;;3.07;100.00
3917;BME280;1973;50.518;7.318;2023-04-05T07:08:22;101605.38;;;3.18;100.00
3917;BME280;1973;50.518;7.318;2023-04-05T07:10:49;101608.75;;;3.29;100.00
3917;BME280;1973;50.518;7.318;2023-04-05T07:13:17;101604.84;;;3.41;100.00
3917;BME280;1973;50.518;7.318;2023-04-05T07:15:44;101605.66;;;3.52;100.00
3917;BME280;1973;50.518;7.318;2023-04-05T07:18:11;101602.06;;;3.61;100.00
3917;BME280;1973;50.518;7.318;2023-04-05T07:20:41;101597.41;;;3.71;100.00
3917;BME280;1973;50.518;7.318;2023-04-05T07:23:08;101600.22;;;3.79;100.00
3917;BME280;1973;50.518;7.318;2023-04-05T07:25:34;101599.03;;;3.91;100.00
3917;BME280;1973;50.518;7.318;2023-04-05T07:28:00;101592.63;;;4.00;100.00
3917;BME280;1973;50.518;7.318;2023-04-05T07:30:27;101597.72;;;4.13;100.00
3917;BME280;1973;50.518;7.318;2023-04-05T07:32:54;101590.47;;;4.21;100.00
3917;BME280;1973;50.518;7.318;2023-04-05T07:35:21;101590.25;;;4.32;100.00
3917;BME280;1973;50.518;7.318;2023-04-05T07:37:47;101588.31;;;4.43;100.00
3917;BME280;1973;50.518;7.318;2023-04-05T07:40:14;101597.41;;;4.51;100.00
3917;BME280;1973;50.518;7.318;2023-04-05T07:42:40;101597.66;;;4.58;100.00
3917;BME280;1973;50.518;7.318;2023-04-05T07:45:07;101583.78;;;4.69;100.00
3917;BME280;1973;50.518;7.318;2023-04-05T07:47:34;101589.59;;;4.74;100.00
3917;BME280;1973;50.518;7.318;2023-04-05T07:50:01;101588.47;;;4.84;100.00
3917;BME280;1973;50.518;7.318;2023-04-05T07:52:27;101583.41;;;4.89;100.00
3917;BME280;1973;50.518;7.318;2023-04-05T07:54:54;101587.75;;;5.00;100.00
3917;BME280;1973;50.518;7.318;2023-04-05T07:57:21;101581.34;;;5.09;100.00
3917;BME280;1973;50.518;7.318;2023-04-05T07:59:48;101587.47;;;5.11;100.00
3917;BME280;1973;50.518;7.318;2023-04-05T08:02:18;101580.03;;;5.21;99.75
3917;BME280;1973;50.518;7.318;2023-04-05T08:04:44;101577.03;;;5.32;98.22
3917;BME280;1973;50.518;7.318;2023-04-05T08:07:11;101571.78;;;5.39;95.57
3917;BME280;1973;50.518;7.318;2023-04-05T08:09:38;101569.59;;;5.43;92.84
3917;BME280;1973;50.518;7.318;2023-04-05T08:12:04;101571.63;;;5.40;89.62
3917;BME280;1973;50.518;7.318;2023-04-05T08:14:31;101566.88;;;5.51;88.77
3917;BME280;1973;50.518;7.318;2023-04-05T08:16:58;101556.84;;;5.59;87.17
3917;BME280;1973;50.518;7.318;2023-04-05T08:19:24;101553.81;;;5.70;83.96
3917;BME280;1973;50.518;7.318;2023-04-05T08:21:51;101560.81;;;5.73;77.82
3917;BME280;1973;50.518;7.318;2023-04-05T08:24:18;101558.81;;;5.83;78.44
3917;BME280;1973;50.518;7.318;2023-04-05T08:26:45;101555.72;;;5.78;74.60
3917;BME280;1973;50.518;7.318;2023-04-05T08:29:11;101548.75;;;5.83;72.25
3917;BME280;1973;50.518;7.318;2023-04-05T08:31:38;101552.38;;;5.92;69.41
3917;BME280;1973;50.518;7.318;2023-04-05T08:34:04;101561.97;;;6.04;70.06
3917;BME280;1973;50.518;7.318;2023-04-05T08:36:33;101553.97;;;6.11;68.30
3917;BME280;1973;50.518;7.318;2023-04-05T08:39:00;101547.31;;;6.21;67.34
3917;BME280;1973;50.518;7.318;2023-04-05T08:41:40;101547.31;;;6.29;63.60
3917;BME280;1973;50.518;7.318;2023-04-05T08:44:09;101553.31;;;6.41;63.58
3917;BME280;1973;50.518;7.318;2023-04-05T08:46:36;101552.47;;;6.41;64.72
3917;BME280;1973;50.518;7.318;2023-04-05T08:49:04;101547.00;;;6.49;64.62
3917;BME280;1973;50.518;7.318;2023-04-05T08:51:32;101538.28;;;6.61;65.87
3917;BME280;1973;50.518;7.318;2023-04-05T08:54:01;101538.44;;;6.68;64.93
3917;BME280;1973;50.518;7.318;2023-04-05T08:56:33;101537.41;;;6.77;63.70
3917;BME280;1973;50.518;7.318;2023-04-05T09:01:30;101536.00;;;6.97;63.04
3917;BME280;1973;50.518;7.318;2023-04-05T09:04:13;101539.41;;;7.07;59.18
3917;BME280;1973;50.518;7.318;2023-04-05T09:06:40;101541.63;;;7.20;61.37
3917;BME280;1973;50.518;7.318;2023-04-05T09:09:10;101536.47;;;7.17;59.11
3917;BME280;1973;50.518;7.318;2023-04-05T09:11:38;101534.91;;;7.30;59.51
3917;BME280;1973;50.518;7.318;2023-04-05T09:14:05;101541.03;;;7.41;59.41
3917;BME280;1973;50.518;7.318;2023-04-05T09:16:34;101530.53;;;7.52;58.36
3917;BME280;1973;50.518;7.318;2023-04-05T09:19:02;101532.06;;;7.47;57.09
3917;BME280;1973;50.518;7.318;2023-04-05T09:21:28;101530.38;;;7.54;56.63
3917;BME280;1973;50.518;7.318;2023-04-05T09:23:55;101535.13;;;7.60;55.94
3917;BME280;1973;50.518;7.318;2023-04-05T09:26:23;101520.03;;;7.64;55.49
3917;BME280;1973;50.518;7.318;2023-04-05T09:28:51;101531.28;;;7.69;55.14
3917;BME280;1973;50.518;7.318;2023-04-05T09:33:58;101532.91;;;7.94;53.56
3917;BME280;1973;50.518;7.318;2023-04-05T09:36:26;101522.41;;;8.20;53.65
3917;BME280;1973;50.518;7.318;2023-04-05T09:39:03;101515.44;;;8.41;51.20
3917;BME280;1973;50.518;7.318;2023-04-05T09:41:30;101527.25;;;8.64;51.94
3917;BME280;1973;50.518;7.318;2023-04-05T09:43:56;101526.91;;;8.82;50.82
3917;BME280;1973;50.518;7.318;2023-04-05T09:46:33;101517.69;;;8.97;47.96
3917;BME280;1973;50.518;7.318;2023-04-05T09:49:00;101509.84;;;9.23;50.79
3917;BME280;1973;50.518;7.318;2023-04-05T09:51:35;101514.09;;;9.41;46.09
3917;BME280;1973;50.518;7.318;2023-04-05T09:54:06;101515.50;;;9.51;47.52
3917;BME280;1973;50.518;7.318;2023-04-05T09:56:37;101504.19;;;9.61;48.01
3917;BME280;1973;50.518;7.318;2023-04-05T09:59:09;101502.44;;;9.53;44.39
3917;BME280;1973;50.518;7.318;2023-04-05T10:01:38;101497.88;;;9.46;46.65
3917;BME280;1973;50.518;7.318;2023-04-05T10:04:07;101494.03;;;9.76;46.19
3917;BME280;1973;50.518;7.318;2023-04-05T10:06:41;101490.72;;;10.02;44.73
3917;BME280;1973;50.518;7.318;2023-04-05T10:09:09;101486.13;;;10.23;45.67
3917;BME280;1973;50.518;7.318;2023-04-05T10:11:37;101485.28;;;10.44;45.54
3917;BME280;1973;50.518;7.318;2023-04-05T10:14:07;101474.03;;;10.67;44.86
3917;BME280;1973;50.518;7.318;2023-04-05T10:16:44;101470.47;;;10.73;41.49
3917;BME280;1973;50.518;7.318;2023-04-05T10:19:23;101475.97;;;10.73;42.37
3917;BME280;1973;50.518;7.318;2023-04-05T10:21:53;101472.19;;;10.74;43.44
3917;BME280;1973;50.518;7.318;2023-04-05T10:24:30;101469.66;;;10.79;43.24
3917;BME280;1973;50.518;7.318;2023-04-05T10:29:49;101458.44;;;11.08;41.50
3917;BME280;1973;50.518;7.318;2023-04-05T10:32:23;101457.75;;;11.34;41.61
3917;BME280;1973;50.518;7.318;2023-04-05T10:35:05;101464.28;;;11.27;38.74
3917;BME280;1973;50.518;7.318;2023-04-05T10:37:42;101461.94;;;11.30;37.90
3917;BME280;1973;50.518;7.318;2023-04-05T10:40:17;101462.03;;;11.50;37.83
3917;BME280;1973;50.518;7.318;2023-04-05T10:42:46;101454.03;;;11.61;39.36
3917;BME280;1973;50.518;7.318;2023-04-05T10:45:16;101460.81;;;11.59;37.83
3917;BME280;1973;50.518;7.318;2023-04-05T10:47:56;101449.03;;;11.78;38.46
3917;BME280;1973;50.518;7.318;2023-04-05T10:50:24;101447.41;;;12.10;39.49
3917;BME280;1973;50.518;7.318;2023-04-05T10:52:51;101443.19;;;12.34;39.16
3917;BME280;1973;50.518;7.318;2023-04-05T10:55:19;101437.03;;;12.51;38.94
3917;BME280;1973;50.518;7.318;2023-04-05T10:57:47;101436.38;;;12.69;38.70
3917;BME280;1973;50.518;7.318;2023-04-05T11:00:16;101426.97;;;13.03;39.36
3917;BME280;1973;50.518;7.318;2023-04-05T11:02:43;101422.06;;;13.25;38.29
3917;BME280;1973;50.518;7.318;2023-04-05T11:05:29;101412.41;;;13.47;34.73
3917;BME280;1973;50.518;7.318;2023-04-05T11:08:06;101415.88;;;13.74;37.29
3917;BME280;1973;50.518;7.318;2023-04-05T11:10:37;101409.97;;;14.01;37.52
3917;BME280;1973;50.518;7.318;2023-04-05T11:13:06;101418.34;;;14.20;38.80
3917;BME280;1973;50.518;7.318;2023-04-05T11:15:34;101403.06;;;14.42;38.05
3917;BME280;1973;50.518;7.318;2023-04-05T11:20:51;101414.22;;;14.04;35.73
3917;BME280;1973;50.518;7.318;2023-04-05T11:23:20;101408.25;;;14.32;36.05
3917;BME280;1973;50.518;7.318;2023-04-05T11:30:50;101385.16;;;14.87;37.09
3917;BME280;1973;50.518;7.318;2023-04-05T11:36:05;101382.78;;;15.27;35.44
3917;BME280;1973;50.518;7.318;2023-04-05T11:38:32;101383.69;;;15.39;33.18
3917;BME280;1973;50.518;7.318;2023-04-05T11:41:25;101386.84;;;14.70;31.21
3917;BME280;1973;50.518;7.318;2023-04-05T11:43:58;101375.75;;;14.70;33.66
3917;BME280;1973;50.518;7.318;2023-04-05T11:46:31;101376.50;;;14.59;32.07
3917;BME280;1973;50.518;7.318;2023-04-05T11:48:57;101375.41;;;14.60;33.54
3917;BME280;1973;50.518;7.318;2023-04-05T11:51:25;101362.69;;;14.95;33.65
3917;BME280;1973;50.518;7.318;2023-04-05T11:53:54;101356.19;;;14.83;32.85
3917;BME280;1973;50.518;7.318;2023-04-05T11:56:20;101362.81;;;14.82;32.63
3917;BME280;1973;50.518;7.318;2023-04-05T11:58:47;101357.06;;;15.02;32.08
3917;BME280;1973;50.518;7.318;2023-04-05T12:01:14;101359.16;;;14.88;31.88
3917;BME280;1973;50.518;7.318;2023-04-05T12:03:41;101350.34;;;15.09;31.33
3917;BME280;1973;50.518;7.318;2023-04-05T12:06:07;101356.03;;;15.51;31.13
3917;BME280;1973;50.518;7.318;2023-04-05T12:08:41;101346.53;;;15.58;28.59
3917;BME280;1973;50.518;7.318;2023-04-05T12:11:10;101350.19;;;15.41;30.02
3917;BME280;1973;50.518;7.318;2023-04-05T12:13:37;101342.28;;;15.86;31.09
3917;BME280;1973;50.518;7.318;2023-04-05T12:16:05;101335.81;;;16.03;30.98
3917;BME280;1973;50.518;7.318;2023-04-05T12:18:34;101337.00;;;16.07;30.28
3917;BME280;1973;50.518;7.318;2023-04-05T12:21:02;101340.50;;;15.91;29.64
3917;BME280;1973;50.518;7.318;2023-04-05T12:23:33;101329.16;;;16.04;30.02
3917;BME280;1973;50.518;7.318;2023-04-05T12:26:00;101326.53;;;16.10;29.84
3917;BME280;1973;50.518;7.318;2023-04-05T12:31:15;101324.28;;;16.65;29.66
3917;BME280;1973;50.518;7.318;2023-04-05T12:33:42;101305.66;;;16.77;28.73
3917;BME280;1973;50.518;7.318;2023-04-05T12:36:09;101316.75;;;16.30;28.39
3917;BME280;1973;50.518;7.318;2023-04-05T12:38:36;101313.41;;;16.40;27.55
3917;BME280;1973;50.518;7.318;2023-04-05T12:41:04;101311.59;;;16.69;27.99
3917;BME280;1973;50.518;7.318;2023-04-05T12:43:38;101306.75;;;16.87;26.55
3917;BME280;1973;50.518;7.318;2023-04-05T12:46:08;101305.88;;;16.98;27.96
3917;BME280;1973;50.518;7.318;2023-04-05T12:48:36;101300.13;;;17.17;28.28
3917;BME280;1973;50.518;7.318;2023-04-05T12:51:03;101288.41;;;17.43;28.85
3917;BME280;1973;50.518;7.318;2023-04-05T12:53:30;101285.72;;;17.48;27.76
3917;BME280;1973;50.518;7.318;2023-04-05T12:55:57;101289.03;;;17.73;27.85
3917;BME280;1973;50.518;7.318;2023-04-05T12:58:36;101289.31;;;17.88;26.49
3917;BME280;1973;50.518;7.318;2023-04-05T13:01:03;101278.69;;;17.57;28.23
3917;BME280;1973;50.518;7.318;2023-04-05T13:03:30;101278.31;;;17.53;27.99
3917;BME280;1973;50.518;7.318;2023-04-05T13:05:56;101275.47;;;17.09;27.98
3917;BME280;1973;50.518;7.318;2023-04-05T13:08:23;101278.06;;;17.27;28.27
3917;BME280;1973;50.518;7.318;2023-04-05T13:10:53;101276.81;;;17.06;29.08
3917;BME280;1973;50.518;7.318;2023-04-05T13:13:23;101269.91;;;17.09;28.98
3917;BME280;1973;50.518;7.318;2023-04-05T13:15:49;101270.72;;;16.69;28.38
3917;BME280;1973;50.518;7.318;2023-04-05T13:18:17;101271.88;;;16.96;27.96
3917;BME280;1973;50.518;7.318;2023-04-05T13:20:44;101262.16;;;17.11;27.87
3917;BME280;1973;50.518;7.318;2023-04-05T13:23:11;101263.06;;;17.28;27.56
3917;BME280;1973;50.518;7.318;2023-04-05T13:25:42;101257.84;;;17.60;26.35
3917;BME280;1973;50.518;7.318;2023-04-05T13:28:10;101251.38;;;17.87;26.76
3917;BME280;1973;50.518;7.318;2023-04-05T13:30:37;101256.84;;;18.16;26.72
3917;BME280;1973;50.518;7.318;2023-04-05T13:33:03;101247.00;;;17.91;26.81
3917;BME280;1973;50.518;7.318;2023-04-05T13:35:30;101245.38;;;18.12;26.98
3917;BME280;1973;50.518;7.318;2023-04-05T13:37:57;101238.31;;;17.43;26.48
3917;BME280;1973;50.518;7.318;2023-04-05T13:40:23;101243.59;;;16.99;26.64
3917;BME280;1973;50.518;7.318;2023-04-05T13:42:50;101240.09;;;17.21;26.49
3917;BME280;1973;50.518;7.318;2023-04-05T13:45:16;101237.00;;;17.34;25.95
3917;BME280;1973;50.518;7.318;2023-04-05T13:47:43;101232.34;;;17.51;25.97
3917;BME280;1973;50.518;7.318;2023-04-05T13:50:09;101228.56;;;17.57;25.68
3917;BME280;1973;50.518;7.318;2023-04-05T13:52:36;101230.16;;;17.25;25.67
3917;BME280;1973;50.518;7.318;2023-04-05T13:55:03;101216.84;;;17.27;25.92
3917;BME280;1973;50.518;7.318;2023-04-05T13:57:30;101216.56;;;17.57;26.07
3917;BME280;1973;50.518;7.318;2023-04-05T13:59:56;101216.50;;;17.68;25.83
3917;BME280;1973;50.518;7.318;2023-04-05T14:02:23;101213.16;;;17.38;26.17